Gatesville, TX

2:15 PM CDT on September 03, 2015 (GMT -0500)
Rhudys on Cedar Ridge | | Change Station
CLOSE
Current Station
Personal Weather Station
Location: Gatesville, TX
Elevation: 1043 ft
Nearby Weather Stations

Elev 1043 ft 31.45 °N, 97.70 °W | Updated 7 seconds ago

Mostly Cloudy
Mostly Cloudy
91.1 °F
Feels Like 95 °F
N
0.0
Wind Variable Wind from SW
Gusts 0.0 mph

Today
High -- | Low -- °F
--% Chance of Precip.
Yesterday
High -- | Low -- °F
Precip. -- in
7:07 AM 7:52 PM
Waning Gibbous, 67% visible
Pressure 29.96 in
Visibility 10.0 miles
Clouds Clear
Heat Index 95 °F
Dew Point 68 °F
Humidity 47%
Rainfall 0.00 in
Snow Depth Not available.
UV 11 out of 12
Pollen 8.80 out of 12
Air Quality Not available.
Flu Activity Not available.
METAR KGOP 031855Z AUTO 18005KT 10SM CLR 33/19 A2996 RMK AO2
Pressure 29.96 in
Visibility 10.0 miles
Clouds Clear
Heat Index 95 °F
Dew Point 68 °F
Humidity 47%
Rainfall 0.00 in
Snow Depth Not available.
UV 11 out of 12
Pollen 8.80 out of 12
Air Quality Not available.
Flu Activity Not available.
METAR KGOP 031855Z AUTO 18005KT 10SM CLR 33/19 A2996 RMK AO2
Nowcast | as of 2:08 PM CDT on September 3, 2015

Isolated showers...along with a rumble of thunder or two will be possible this afternoon mainly along and southeast of a Canton to Marlin to Thorndale line. Rainfall amounts should remain light...generally less than one quarter of an inch. Cloud to ground lightning and gusty winds up to 30 mph may be possible with the stronger storms should they develop. Otherwise...temperatures are expected to climb into the mid to upper 90s beneath partly to mostly sunny skies.

×

10-Day Weather Forecast

×

Almanac

Astronomy

Sep. 03, 2015 Rise Set
Actual Time
Civil Twilight
Nautical Twilight
Astronomical Twilight
Moon
Length of Visible Light
Length of Day
Tomorrow will be .
, % of the Moon is Illuminated

Today's Extremes

State Highs State Lows

Community

WunderPhotos

Upload Photos

1,852,014 photos uploaded!

WunderBlogs® & News

Nearby

Air Quality

  Air Quality AQ Index Pollutant
Not available.

Snow Depth

Station Depth Elevation

Earthquake Activity

City Distance Mag. Time & Date
Minimum magnitude displayed is 2.5.

Coastal Water Temperatures

Place Temperature

Stations

Nearby Weather Stations

Station Location Temp. Windchill Dew Point Humidity Wind Precip. Elev Updated Type